Time;durP1;ratioP1;P1;durP2;ratioP2;P2;SDS_P1;SDS_P2;PMS_P1;PMS_P2;Temp;Humidity;BMP_temperature;BMP_pressure;BME280_temperature;BME280_humidity;BME280_pressure;Samples;Min_cycle;Max_cycle;Signal;HPM_P1;HPM_P2
2021/07/01 00:00:18;;;;;;;2.13;1.30;;;13.10;99.90;;;;;;5013211;28;20269;-64
2021/07/01 00:02:44;;;;;;;1.43;1.27;;;13.20;99.90;;;;;;4994867;28;20680;-64
2021/07/01 00:05:13;;;;;;;1.20;1.07;;;13.10;99.90;;;;;;4993752;28;20427;-64
2021/07/01 00:07:40;;;;;;;1.17;1.07;;;13.10;99.90;;;;;;4993723;28;20410;-64
2021/07/01 00:10:12;;;;;;;1.27;1.17;;;13.10;99.90;;;;;;4993671;28;20418;-64
2021/07/01 00:12:37;;;;;;;1.37;1.10;;;13.10;99.90;;;;;;4993595;28;20450;-64
2021/07/01 00:15:05;;;;;;;1.27;1.13;;;13.10;99.90;;;;;;4993701;28;20785;-64
2021/07/01 00:17:31;;;;;;;1.63;1.27;;;13.10;99.90;;;;;;4993455;28;20175;-65
2021/07/01 00:19:56;;;;;;;1.47;1.37;;;13.20;99.90;;;;;;4993329;28;20473;-64
2021/07/01 00:22:22;;;;;;;1.67;1.17;;;13.10;99.90;;;;;;4993401;28;20257;-64
2021/07/01 00:24:47;;;;;;;1.17;1.07;;;13.20;99.90;;;;;;4993410;28;20665;-64
2021/07/01 00:27:13;;;;;;;1.20;1.10;;;13.20;99.90;;;;;;4993340;28;20186;-63
2021/07/01 00:29:39;;;;;;;3.07;1.00;;;13.20;99.90;;;;;;4993092;28;20172;-64
2021/07/01 00:32:04;;;;;;;1.63;1.53;;;13.20;99.90;;;;;;4993231;28;20190;-64
2021/07/01 00:34:32;;;;;;;1.87;1.10;;;13.20;99.90;;;;;;4993199;28;20227;-64
2021/07/01 00:36:57;;;;;;;1.83;1.17;;;13.20;99.90;;;;;;5001848;28;20644;-64
2021/07/01 00:39:23;;;;;;;1.30;1.20;;;13.20;99.90;;;;;;5012469;28;20476;-64
2021/07/01 00:41:48;;;;;;;1.10;1.00;;;13.30;99.90;;;;;;5012679;28;20171;-64
2021/07/01 00:44:14;;;;;;;1.10;1.00;;;13.30;99.90;;;;;;5012691;28;20568;-64
2021/07/01 00:46:39;;;;;;;1.90;0.90;;;13.30;99.90;;;;;;5012765;28;20175;-64
2021/07/01 00:49:05;;;;;;;1.30;1.20;;;13.30;99.90;;;;;;5012266;28;20246;-64
2021/07/01 00:51:30;;;;;;;2.17;1.10;;;13.30;99.90;;;;;;5012551;28;20693;-64
2021/07/01 00:53:56;;;;;;;3.00;1.00;;;13.20;99.90;;;;;;5012272;28;20756;-64
2021/07/01 00:56:22;;;;;;;1.57;1.00;;;13.20;99.90;;;;;;5012429;28;20202;-64
2021/07/01 00:58:53;;;;;;;1.30;1.10;;;13.20;99.90;;;;;;5012136;28;20175;-64
2021/07/01 01:01:21;;;;;;;0.80;0.80;;;13.20;99.90;;;;;;5005767;28;20175;-64
2021/07/01 01:03:46;;;;;;;1.00;0.90;;;13.20;99.90;;;;;;4992683;28;20473;-64
2021/07/01 01:06:13;;;;;;;0.80;0.80;;;13.20;99.90;;;;;;4992826;28;20422;-64
2021/07/01 01:08:39;;;;;;;0.73;0.63;;;13.20;99.90;;;;;;4992526;28;20176;-64
2021/07/01 01:11:05;;;;;;;0.70;0.70;;;13.30;99.90;;;;;;4992727;28;20418;-64
2021/07/01 01:13:31;;;;;;;0.83;0.83;;;13.30;99.90;;;;;;4991961;28;20438;-64
2021/07/01 01:16:01;;;;;;;0.87;0.70;;;13.30;99.90;;;;;;4992503;28;20172;-64
2021/07/01 01:18:27;;;;;;;1.00;0.80;;;13.30;99.90;;;;;;4992403;28;20187;-64
2021/07/01 01:20:55;;;;;;;0.80;0.80;;;13.40;99.90;;;;;;4992613;28;20419;-64
2021/07/01 01:23:22;;;;;;;5.17;0.90;;;13.40;99.90;;;;;;4992492;28;20537;-64
2021/07/01 01:25:53;;;;;;;2.87;0.87;;;13.40;99.90;;;;;;4992534;28;20423;-64
2021/07/01 01:28:18;;;;;;;1.10;0.80;;;13.50;99.90;;;;;;4992390;28;20469;-64
2021/07/01 01:30:45;;;;;;;1.17;0.80;;;13.50;99.90;;;;;;4992397;28;20415;-64
2021/07/01 01:33:11;;;;;;;0.83;0.83;;;13.50;99.90;;;;;;4992399;28;20283;-64
2021/07/01 01:35:38;;;;;;;0.67;0.67;;;13.50;99.90;;;;;;4992252;28;20937;-64
2021/07/01 01:38:08;;;;;;;4.77;0.80;;;13.50;99.90;;;;;;5010053;28;20429;-63
2021/07/01 01:40:34;;;;;;;2.33;1.00;;;13.60;99.90;;;;;;5011883;28;20432;-64
2021/07/01 01:42:59;;;;;;;1.63;1.00;;;13.50;99.90;;;;;;5012239;28;21029;-64
2021/07/01 01:45:25;;;;;;;0.90;0.90;;;13.50;99.90;;;;;;5012059;28;20167;-64
2021/07/01 01:47:50;;;;;;;2.30;0.90;;;13.50;99.90;;;;;;5012027;28;20167;-63
2021/07/01 01:50:18;;;;;;;0.70;0.70;;;13.60;99.90;;;;;;5011704;28;20163;-64
2021/07/01 01:52:43;;;;;;;0.93;0.90;;;13.50;99.90;;;;;;5012007;28;20698;-63
2021/07/01 01:55:12;;;;;;;1.87;1.00;;;13.60;99.90;;;;;;5011881;28;20421;-64
2021/07/01 01:57:38;;;;;;;0.97;0.90;;;13.60;99.90;;;;;;5011855;28;20169;-64
2021/07/01 02:00:05;;;;;;;4.37;0.90;;;13.60;99.90;;;;;;5011615;28;20426;-64
2021/07/01 02:02:30;;;;;;;0.93;0.83;;;13.70;99.90;;;;;;4995669;28;20447;-64
2021/07/01 02:04:55;;;;;;;1.37;1.27;;;13.70;99.90;;;;;;4992220;28;20979;-64
2021/07/01 02:07:21;;;;;;;1.07;1.00;;;13.70;99.90;;;;;;4992252;28;20179;-64
2021/07/01 02:09:46;;;;;;;1.60;1.50;;;13.70;99.90;;;;;;4992282;28;20740;-64
2021/07/01 02:12:12;;;;;;;1.23;1.13;;;13.70;99.90;;;;;;4992049;28;20198;-63
2021/07/01 02:14:37;;;;;;;1.20;1.10;;;13.70;99.90;;;;;;4992201;28;20188;-64
2021/07/01 02:17:04;;;;;;;0.90;0.90;;;13.70;99.90;;;;;;4992181;28;20175;-64
2021/07/01 02:19:29;;;;;;;1.70;0.97;;;13.70;99.90;;;;;;4992111;28;20175;-64
2021/07/01 02:21:55;;;;;;;2.13;1.00;;;13.70;99.90;;;;;;4992023;28;20439;-66
2021/07/01 02:24:20;;;;;;;1.43;0.80;;;13.70;99.90;;;;;;4991966;28;20657;-64
2021/07/01 02:26:46;;;;;;;0.80;0.80;;;13.70;99.90;;;;;;4995175;28;20176;-64
2021/07/01 02:29:11;;;;;;;1.53;0.90;;;13.70;99.90;;;;;;4995572;28;20171;-64
2021/07/01 02:31:37;;;;;;;0.90;0.90;;;13.70;99.90;;;;;;4995560;28;20233;-64
2021/07/01 02:34:02;;;;;;;0.77;0.70;;;13.70;99.90;;;;;;4994368;28;20414;-65
2021/07/01 02:36:28;;;;;;;1.97;0.80;;;13.70;99.90;;;;;;5000501;28;20163;-64
2021/07/01 02:38:53;;;;;;;1.80;0.90;;;13.70;99.90;;;;;;5015237;28;20179;-64
2021/07/01 02:41:19;;;;;;;0.90;0.90;;;13.70;99.90;;;;;;5015191;28;20258;-64
2021/07/01 02:43:45;;;;;;;3.37;1.00;;;13.70;99.90;;;;;;5014912;28;20211;-63
2021/07/01 02:46:10;;;;;;;2.90;0.93;;;13.70;99.90;;;;;;5015199;28;20270;-62
2021/07/01 02:48:36;;;;;;;0.90;0.90;;;13.70;99.90;;;;;;5014878;28;20458;-63
2021/07/01 02:51:01;;;;;;;1.13;0.93;;;13.70;99.90;;;;;;5015149;28;20167;-63
2021/07/01 02:53:27;;;;;;;0.93;0.80;;;13.80;99.90;;;;;;5014985;28;20647;-63
2021/07/01 02:55:52;;;;;;;2.20;1.13;;;13.80;99.90;;;;;;5014976;28;20163;-63
2021/07/01 02:58:18;;;;;;;3.23;1.00;;;13.80;99.90;;;;;;5014491;28;20225;-63
2021/07/01 03:00:43;;;;;;;1.60;1.50;;;13.70;99.90;;;;;;5012823;28;20656;-63
2021/07/01 03:03:09;;;;;;;1.53;1.40;;;13.70;99.90;;;;;;4995021;28;20208;-63
2021/07/01 03:05:34;;;;;;;1.30;1.20;;;13.70;99.90;;;;;;4995236;28;20172;-63
2021/07/01 03:08:00;;;;;;;1.97;1.20;;;13.70;99.90;;;;;;4994858;28;20168;-63
2021/07/01 03:10:25;;;;;;;1.30;1.20;;;13.60;99.90;;;;;;4994626;28;20466;-63
2021/07/01 03:12:51;;;;;;;1.37;1.27;;;13.70;99.90;;;;;;4994934;28;20727;-63
2021/07/01 03:15:16;;;;;;;1.80;1.30;;;13.70;99.90;;;;;;4993562;28;20231;-63
2021/07/01 03:17:42;;;;;;;1.40;1.20;;;13.60;99.90;;;;;;4994805;28;20291;-64
2021/07/01 03:20:08;;;;;;;1.20;1.10;;;13.60;99.90;;;;;;4994364;28;20263;-63
2021/07/01 03:22:33;;;;;;;1.07;0.97;;;13.60;99.90;;;;;;4994521;28;20199;-63
2021/07/01 03:24:59;;;;;;;6.03;1.20;;;13.60;99.90;;;;;;4994469;28;20462;-63
2021/07/01 03:27:24;;;;;;;1.10;1.00;;;13.60;99.90;;;;;;4994799;28;20708;-63
2021/07/01 03:29:50;;;;;;;1.13;0.97;;;13.60;99.90;;;;;;4994275;28;20214;-63
2021/07/01 03:32:15;;;;;;;1.57;0.97;;;13.60;99.90;;;;;;4994478;28;20191;-63
2021/07/01 03:34:41;;;;;;;0.80;0.80;;;13.60;99.90;;;;;;4994388;28;20163;-63
2021/07/01 03:37:06;;;;;;;1.30;1.20;;;13.60;99.90;;;;;;5003373;28;20541;-63
2021/07/01 03:39:32;;;;;;;1.20;1.10;;;13.50;99.90;;;;;;5013552;28;20579;-63
2021/07/01 03:41:57;;;;;;;1.40;1.30;;;13.50;99.90;;;;;;5013700;28;20598;-63
2021/07/01 03:44:23;;;;;;;1.10;1.00;;;13.50;99.90;;;;;;5013680;28;20198;-62
2021/07/01 03:46:48;;;;;;;1.33;1.20;;;13.50;99.90;;;;;;5013816;28;20167;-63
2021/07/01 03:49:14;;;;;;;1.40;1.30;;;13.50;99.90;;;;;;5013486;28;20195;-63
2021/07/01 03:51:40;;;;;;;2.67;1.23;;;13.50;99.90;;;;;;5013397;28;20163;-63
2021/07/01 03:54:05;;;;;;;2.10;1.80;;;13.50;99.90;;;;;;5014262;28;20179;-63
2021/07/01 03:56:41;;;;;;;1.40;1.30;;;13.50;99.90;;;;;;5013181;28;20179;-63
2021/07/01 03:59:11;;;;;;;2.93;2.07;;;13.50;99.90;;;;;;5012995;28;20511;-63
2021/07/01 04:01:38;;;;;;;1.60;1.30;;;13.50;99.90;;;;;;5004421;28;20422;-63
2021/07/01 04:04:04;;;;;;;2.23;1.03;;;13.60;99.90;;;;;;4993822;28;20450;-63
2021/07/01 04:06:30;;;;;;;1.17;1.07;;;13.60;99.90;;;;;;4993728;28;20505;-63
2021/07/01 04:08:55;;;;;;;1.27;1.17;;;13.60;99.90;;;;;;4993281;28;20464;-63
2021/07/01 04:11:21;;;;;;;5.33;3.57;;;13.60;99.90;;;;;;4993715;28;20225;-63
2021/07/01 04:13:46;;;;;;;1.80;1.40;;;13.60;99.90;;;;;;4993682;28;20195;-63
2021/07/01 04:16:12;;;;;;;1.70;1.60;;;13.70;99.90;;;;;;4993611;28;20548;-63
2021/07/01 04:18:38;;;;;;;1.27;1.17;;;13.70;99.90;;;;;;4993256;28;20179;-63
2021/07/01 04:21:03;;;;;;;4.73;1.53;;;13.70;99.90;;;;;;4993429;28;20172;-63
2021/07/01 04:23:29;;;;;;;1.50;1.40;;;13.70;99.90;;;;;;4993311;28;21014;-63
2021/07/01 04:25:55;;;;;;;4.40;1.50;;;13.70;99.90;;;;;;5009850;28;20193;-63
2021/07/01 04:28:20;;;;;;;1.20;1.10;;;13.80;99.90;;;;;;5012761;28;20171;-63
2021/07/01 04:30:47;;;;;;;11.90;1.73;;;13.80;99.90;;;;;;5012902;28;20229;-63
2021/07/01 04:33:12;;;;;;;1.90;1.70;;;13.90;99.90;;;;;;5012956;28;20261;-63
2021/07/01 04:35:38;;;;;;;2.00;1.73;;;13.90;99.90;;;;;;5012811;28;20422;-63
2021/07/01 04:38:04;;;;;;;1.57;1.30;;;13.90;99.90;;;;;;4995065;28;20237;-63
2021/07/01 04:40:29;;;;;;;1.33;1.00;;;13.90;99.90;;;;;;4992995;28;20202;-63
2021/07/01 04:42:55;;;;;;;2.10;1.77;;;13.90;99.90;;;;;;4995709;28;20198;-63
2021/07/01 04:45:20;;;;;;;1.70;1.57;;;13.90;99.90;;;;;;5012695;28;20701;-63
2021/07/01 04:47:46;;;;;;;4.13;1.80;;;14.00;99.90;;;;;;5012594;28;20171;-63
2021/07/01 04:50:11;;;;;;;1.93;1.60;;;14.00;99.90;;;;;;5012363;28;20167;-63
2021/07/01 04:52:37;;;;;;;1.80;1.70;;;14.00;99.90;;;;;;5012386;28;20214;-63
2021/07/01 04:55:04;;;;;;;1.80;1.53;;;13.90;99.90;;;;;;5012621;28;20174;-63
2021/07/01 04:57:29;;;;;;;2.20;2.00;;;13.90;99.90;;;;;;5012393;28;20175;-62
2021/07/01 04:59:55;;;;;;;2.03;1.77;;;13.90;99.90;;;;;;5012289;28;20784;-63
2021/07/01 05:02:20;;;;;;;1.50;1.40;;;13.90;99.90;;;;;;4997580;28;20206;-63
2021/07/01 05:04:46;;;;;;;1.37;1.23;;;13.90;99.90;;;;;;4992695;28;20254;-63
2021/07/01 05:07:11;;;;;;;1.60;1.47;;;14.00;99.90;;;;;;4992593;28;20219;-63
2021/07/01 05:09:38;;;;;;;1.53;1.43;;;14.00;99.90;;;;;;4992886;28;20657;-63
2021/07/01 05:12:04;;;;;;;1.90;1.33;;;14.00;99.90;;;;;;4992673;28;20183;-63
2021/07/01 05:14:29;;;;;;;1.67;1.57;;;13.90;99.90;;;;;;4992806;28;20426;-63
2021/07/01 05:16:55;;;;;;;1.40;1.30;;;14.00;99.90;;;;;;4992701;28;20171;-63
2021/07/01 05:19:20;;;;;;;2.30;1.83;;;14.00;99.90;;;;;;4992367;28;20259;-63
2021/07/01 05:21:46;;;;;;;3.10;2.50;;;14.00;99.90;;;;;;4992438;28;20171;-63
2021/07/01 05:24:11;;;;;;;1.60;1.50;;;14.00;99.90;;;;;;4992609;28;20210;-63
2021/07/01 05:26:37;;;;;;;5.80;2.27;;;14.00;99.90;;;;;;4992600;28;20237;-63
2021/07/01 05:29:02;;;;;;;4.20;1.80;;;14.10;99.90;;;;;;4992486;28;20176;-63
2021/07/01 05:31:28;;;;;;;2.10;1.90;;;14.20;99.90;;;;;;4992422;28;20310;-63
2021/07/01 05:33:54;;;;;;;1.93;1.83;;;14.20;99.90;;;;;;4992448;28;20199;-63
2021/07/01 05:36:19;;;;;;;1.97;1.60;;;14.20;99.90;;;;;;5004128;28;20258;-63
2021/07/01 05:38:45;;;;;;;2.20;1.90;;;14.20;99.90;;;;;;4992157;28;20313;-63
2021/07/01 05:41:10;;;;;;;2.60;2.40;;;14.30;99.90;;;;;;4992469;28;20203;-63
2021/07/01 05:43:36;;;;;;;2.93;2.33;;;14.40;99.90;;;;;;4992036;28;20694;-63
2021/07/01 05:46:02;;;;;;;2.07;1.77;;;14.50;99.90;;;;;;4992315;28;20640;-63
2021/07/01 05:48:28;;;;;;;2.73;2.53;;;14.50;99.90;;;;;;4992283;28;20258;-63
2021/07/01 05:51:03;;;;;;;2.40;2.20;;;14.50;99.90;;;;;;4992013;28;20510;-63
2021/07/01 05:53:33;;;;;;;5.10;2.20;;;14.60;99.90;;;;;;4993656;28;21057;-63
2021/07/01 05:55:59;;;;;;;2.83;1.93;;;14.70;99.90;;;;;;5011871;28;20434;-63
2021/07/01 05:58:25;;;;;;;40.63;21.00;;;14.80;99.90;;;;;;5011516;28;20456;-64
2021/07/01 06:00:50;;;;;;;3.57;3.27;;;14.80;99.90;;;;;;5009909;28;20462;-64
2021/07/01 06:03:16;;;;;;;2.10;1.93;;;14.80;99.90;;;;;;4995929;28;20744;-63
2021/07/01 06:05:49;;;;;;;3.13;1.70;;;14.90;99.90;;;;;;4995946;28;20538;-63
2021/07/01 06:08:15;;;;;;;7.10;3.27;;;14.90;99.90;;;;;;4993521;28;20171;-63
2021/07/01 06:10:44;;;;;;;9.00;3.90;;;15.00;99.90;;;;;;4995498;28;20414;-63
2021/07/01 06:13:11;;;;;;;8.53;2.77;;;14.90;99.90;;;;;;4995937;28;20872;-63
2021/07/01 06:15:37;;;;;;;6.30;2.93;;;15.20;99.90;;;;;;5013394;28;20440;-63
2021/07/01 06:18:03;;;;;;;4.07;2.70;;;15.20;99.90;;;;;;5014940;28;20483;-63
2021/07/01 06:20:29;;;;;;;3.80;2.60;;;15.10;99.90;;;;;;5010326;28;20438;-63
2021/07/01 06:22:54;;;;;;;3.37;2.43;;;15.00;99.90;;;;;;5010663;28;20902;-63
2021/07/01 06:25:22;;;;;;;2.53;2.10;;;14.90;99.90;;;;;;4996819;28;20637;-63
2021/07/01 06:27:49;;;;;;;2.67;2.47;;;15.00;99.90;;;;;;5009361;28;20167;-63
2021/07/01 06:30:23;;;;;;;2.93;2.60;;;15.10;99.90;;;;;;5009273;28;20426;-63
2021/07/01 06:32:52;;;;;;;2.03;1.83;;;15.00;99.90;;;;;;4969778;28;20469;-63
2021/07/01 06:35:20;;;;;;;2.17;1.90;;;15.00;99.90;;;;;;4985486;28;20966;-63
2021/07/01 06:37:48;;;;;;;2.60;2.10;;;15.00;99.90;;;;;;4995469;28;20419;-63
2021/07/01 06:40:15;;;;;;;2.87;2.57;;;15.00;99.90;;;;;;4994914;28;20422;-62
2021/07/01 06:42:43;;;;;;;2.03;1.90;;;15.00;99.90;;;;;;4995130;28;20442;-63
2021/07/01 06:45:09;;;;;;;5.40;4.10;;;15.10;99.90;;;;;;4994972;28;20469;-63
2021/07/01 06:47:35;;;;;;;4.47;3.70;;;15.30;99.90;;;;;;4995010;28;20415;-63
2021/07/01 06:50:05;;;;;;;1.80;1.70;;;15.80;99.90;;;;;;4994649;28;20534;-64
2021/07/01 06:52:31;;;;;;;2.03;1.80;;;15.90;99.90;;;;;;4994350;28;20229;-63
2021/07/01 06:54:58;;;;;;;2.50;1.80;;;15.70;99.90;;;;;;4995068;28;20441;-63
2021/07/01 06:57:25;;;;;;;7.50;4.67;;;15.60;99.90;;;;;;4995001;28;20496;-63
2021/07/01 06:59:50;;;;;;;2.30;2.10;;;15.50;99.90;;;;;;4994460;28;20438;-63
2021/07/01 07:02:16;;;;;;;1.87;1.77;;;15.40;99.90;;;;;;4994769;28;20458;-62
2021/07/01 07:04:42;;;;;;;1.90;1.80;;;15.30;99.90;;;;;;4994752;28;20211;-63
2021/07/01 07:07:07;;;;;;;2.50;2.30;;;15.30;99.90;;;;;;4994850;28;20171;-63
2021/07/01 07:09:34;;;;;;;2.40;2.20;;;15.40;99.90;;;;;;4994507;28;20535;-63
2021/07/01 07:11:59;;;;;;;2.60;2.40;;;15.50;99.90;;;;;;4993720;28;20266;-64
2021/07/01 07:14:25;;;;;;;3.00;2.50;;;15.50;99.90;;;;;;4996207;28;20450;-63
2021/07/01 07:16:55;;;;;;;2.20;2.10;;;15.60;99.90;;;;;;4995290;28;20186;-64
2021/07/01 07:19:22;;;;;;;2.23;2.13;;;15.70;99.90;;;;;;4995714;28;20176;-63
2021/07/01 07:21:50;;;;;;;5.10;2.97;;;15.80;99.90;;;;;;4995054;28;20788;-63
2021/07/01 07:24:17;;;;;;;3.13;2.37;;;15.80;99.90;;;;;;4993972;28;20905;-63
2021/07/01 07:26:48;;;;;;;3.10;2.50;;;15.90;99.90;;;;;;4995109;28;20415;-63
2021/07/01 07:29:16;;;;;;;3.80;3.50;;;16.00;99.90;;;;;;4994434;28;20518;-63
2021/07/01 07:31:42;;;;;;;2.90;2.70;;;16.10;99.90;;;;;;4994363;28;20985;-63
2021/07/01 07:34:08;;;;;;;2.67;2.47;;;16.30;99.90;;;;;;4994345;28;20530;-63
2021/07/01 07:36:34;;;;;;;2.67;2.53;;;16.60;99.90;;;;;;4997329;28;20504;-64
2021/07/01 07:39:02;;;;;;;2.43;2.30;;;16.70;99.90;;;;;;5011574;28;20425;-63
2021/07/01 07:41:27;;;;;;;3.10;2.90;;;16.60;99.90;;;;;;4994240;28;20422;-63
2021/07/01 07:43:55;;;;;;;2.80;2.60;;;16.60;99.90;;;;;;4993570;28;20466;-63
2021/07/01 07:46:23;;;;;;;3.10;2.90;;;16.80;99.90;;;;;;4990329;28;20176;-63
2021/07/01 07:48:49;;;;;;;3.57;3.00;;;17.10;99.90;;;;;;4989289;28;20936;-63
2021/07/01 07:51:17;;;;;;;3.07;2.50;;;17.30;99.90;;;;;;4990335;28;20433;-63
2021/07/01 07:53:47;;;;;;;3.00;2.80;;;17.90;99.90;;;;;;4983436;28;20645;-63
2021/07/01 07:56:15;;;;;;;3.27;2.90;;;17.80;99.90;;;;;;4986501;28;20434;-63
2021/07/01 07:58:46;;;;;;;3.20;3.00;;;17.80;99.90;;;;;;4990353;28;20954;-63
2021/07/01 08:01:12;;;;;;;4.10;2.87;;;18.00;99.90;;;;;;4990363;28;20517;-63
2021/07/01 08:03:39;;;;;;;3.60;3.30;;;17.90;99.90;;;;;;4990084;28;20953;-63
2021/07/01 08:06:06;;;;;;;2.70;2.50;;;17.70;99.90;;;;;;4990006;28;20167;-63
2021/07/01 08:08:35;;;;;;;3.33;3.13;;;17.70;99.90;;;;;;4989825;28;20425;-63
2021/07/01 08:11:04;;;;;;;3.10;2.90;;;17.40;99.90;;;;;;4990382;28;20426;-64
2021/07/01 08:13:31;;;;;;;3.50;3.20;;;17.40;99.90;;;;;;4990506;28;20901;-63
2021/07/01 08:15:57;;;;;;;2.90;2.70;;;17.50;99.90;;;;;;4987511;28;20439;-63
2021/07/01 08:18:40;;;;;;;3.10;2.90;;;17.70;99.90;;;;;;4985678;28;20787;-63
2021/07/01 08:21:08;;;;;;;3.47;3.17;;;17.60;99.90;;;;;;4990245;28;20168;-64
2021/07/01 08:23:35;;;;;;;3.13;2.93;;;17.60;99.90;;;;;;4989830;28;20956;-63
2021/07/01 08:26:01;;;;;;;3.27;3.07;;;17.80;99.90;;;;;;4990043;28;20791;-63
2021/07/01 08:28:28;;;;;;;3.77;3.47;;;17.80;99.90;;;;;;4989544;28;20505;-63
2021/07/01 08:30:59;;;;;;;3.50;3.20;;;17.80;99.90;;;;;;4989997;28;20453;-63
2021/07/01 08:33:31;;;;;;;3.17;2.97;;;17.60;99.90;;;;;;4989713;28;20438;-63
2021/07/01 08:35:59;;;;;;;4.10;3.77;;;17.40;99.90;;;;;;4988658;28;20439;-63
2021/07/01 08:38:26;;;;;;;4.57;3.50;;;17.40;99.90;;;;;;4989617;28;20511;-63
2021/07/01 08:40:58;;;;;;;4.50;4.13;;;17.50;99.90;;;;;;4989414;28;20437;-63
2021/07/01 08:43:31;;;;;;;3.50;3.30;;;17.20;99.90;;;;;;4990260;28;20933;-63
2021/07/01 08:46:12;;;;;;;5.20;4.80;;;17.10;99.90;;;;;;4989486;28;20415;-63
2021/07/01 08:48:59;;;;;;;5.53;3.33;;;17.10;99.90;;;;;;4989468;28;20947;-63
2021/07/01 08:51:44;;;;;;;9.47;8.63;;;17.00;99.90;;;;;;4989467;28;20994;-63
2021/07/01 08:54:29;;;;;;;8.77;7.97;;;17.40;99.90;;;;;;4989747;28;20943;-63
2021/07/01 08:56:56;;;;;;;8.53;3.90;;;18.40;99.90;;;;;;4989469;28;20860;-66
2021/07/01 08:59:25;;;;;;;3.27;3.07;;;18.50;99.90;;;;;;4989368;28;20493;-63
2021/07/01 09:01:57;;;;;;;3.87;3.57;;;18.00;99.90;;;;;;4988377;28;20431;-63
2021/07/01 09:04:29;;;;;;;4.30;3.93;;;17.60;99.90;;;;;;4989637;28;20455;-63
2021/07/01 09:07:03;;;;;;;3.60;3.30;;;17.50;99.90;;;;;;4989154;28;20427;-63
2021/07/01 09:09:34;;;;;;;3.57;3.27;;;17.70;99.90;;;;;;4989304;28;20426;-63
2021/07/01 09:12:07;;;;;;;4.40;4.00;;;17.90;99.90;;;;;;4989591;28;20442;-63
2021/07/01 09:14:35;;;;;;;3.90;3.50;;;18.30;99.90;;;;;;4996383;28;20469;-63
2021/07/01 09:17:07;;;;;;;4.23;3.93;;;18.50;99.90;;;;;;4989852;28;20809;-63
2021/07/01 09:19:34;;;;;;;5.67;3.90;;;18.50;99.90;;;;;;4988314;28;20462;-64
2021/07/01 09:22:01;;;;;;;4.23;3.47;;;18.10;99.90;;;;;;4989200;28;20505;-63
2021/07/01 09:24:34;;;;;;;3.23;2.90;;;17.90;99.90;;;;;;4989663;28;20462;-63
2021/07/01 09:27:07;;;;;;;3.43;3.13;;;17.80;99.90;;;;;;4988899;28;20473;-63
2021/07/01 09:29:32;;;;;;;4.13;3.83;;;17.60;99.90;;;;;;4991910;28;20834;-63
2021/07/01 09:31:59;;;;;;;3.80;3.50;;;17.50;99.90;;;;;;4991360;28;20438;-63
2021/07/01 09:34:25;;;;;;;3.47;3.27;;;17.30;99.90;;;;;;4992609;28;20238;-64
2021/07/01 09:36:54;;;;;;;3.83;3.63;;;17.30;99.90;;;;;;5003770;28;20829;-63
2021/07/01 09:39:22;;;;;;;4.53;4.13;;;17.50;99.90;;;;;;5014756;28;20175;-64
2021/07/01 09:41:47;;;;;;;3.97;3.67;;;17.80;99.90;;;;;;5002842;28;20433;-63
2021/07/01 09:44:16;;;;;;;4.00;3.70;;;17.90;99.90;;;;;;4996214;28;20450;-63
2021/07/01 09:46:47;;;;;;;4.80;3.37;;;18.40;99.90;;;;;;4996373;28;20172;-63
2021/07/01 09:49:18;;;;;;;3.80;3.50;;;18.50;99.90;;;;;;4996479;28;20884;-64
2021/07/01 09:51:47;;;;;;;4.73;4.33;;;18.60;99.90;;;;;;4996085;28;20801;-64
2021/07/01 09:54:15;;;;;;;3.30;3.10;;;18.90;99.90;;;;;;4996905;28;20415;-63
2021/07/01 09:56:42;;;;;;;3.50;3.20;;;18.90;99.90;;;;;;4996273;28;20505;-64
2021/07/01 09:59:23;;;;;;;6.83;3.30;;;18.60;99.90;;;;;;4996224;28;20430;-63
2021/07/01 10:01:49;;;;;;;3.40;3.20;;;18.60;99.90;;;;;;4994733;28;21054;-64
2021/07/01 10:04:14;;;;;;;3.73;3.43;;;18.60;99.90;;;;;;4995937;28;20458;-63
2021/07/01 10:06:40;;;;;;;4.70;4.30;;;18.50;99.90;;;;;;4995983;28;20172;-64
2021/07/01 10:09:06;;;;;;;4.93;4.47;;;18.60;99.90;;;;;;4995811;28;20168;-64
2021/07/01 10:11:35;;;;;;;3.77;3.50;;;18.60;99.90;;;;;;4996909;28;20234;-63
2021/07/01 10:14:09;;;;;;;5.70;5.10;;;18.70;99.90;;;;;;4995827;28;20841;-63
2021/07/01 10:16:35;;;;;;;3.60;2.80;;;18.50;99.90;;;;;;4996040;28;20501;-62
2021/07/01 10:19:04;;;;;;;3.30;3.00;;;18.60;99.90;;;;;;4995550;28;20450;-62
2021/07/01 10:21:30;;;;;;;4.17;3.80;;;18.70;99.90;;;;;;4994758;28;20782;-62
2021/07/01 10:24:19;;;;;;;4.10;3.33;;;18.60;99.90;;;;;;4998315;28;20959;-62
2021/07/01 10:26:50;;;;;;;3.00;2.70;;;18.70;99.90;;;;;;5015347;28;20467;-63
2021/07/01 10:29:17;;;;;;;4.30;4.00;;;18.70;99.90;;;;;;5008384;28;20438;-64
2021/07/01 10:31:49;;;;;;;4.00;3.70;;;18.50;99.90;;;;;;4995586;28;20427;-64
2021/07/01 10:34:15;;;;;;;3.20;2.90;;;18.40;99.90;;;;;;4995492;28;20509;-63
2021/07/01 10:36:40;;;;;;;2.03;1.93;;;18.30;99.90;;;;;;5001718;28;20568;-62
2021/07/01 10:39:06;;;;;;;2.60;2.40;;;18.20;99.90;;;;;;5014766;28;20182;-64
2021/07/01 10:41:39;;;;;;;2.80;2.60;;;18.30;99.90;;;;;;5014983;28;20167;-63
2021/07/01 10:44:05;;;;;;;2.40;2.30;;;18.20;99.90;;;;;;5014793;28;20576;-63
2021/07/01 10:46:43;;;;;;;2.10;1.90;;;18.20;99.90;;;;;;5014515;28;20419;-64
2021/07/01 10:49:09;;;;;;;5.80;4.00;;;18.00;99.90;;;;;;5006808;28;20431;-64
2021/07/01 10:51:35;;;;;;;2.50;2.30;;;18.00;99.90;;;;;;4993936;28;20426;-64
2021/07/01 10:54:15;;;;;;;3.23;3.03;;;17.90;99.90;;;;;;4995100;28;20458;-64
2021/07/01 10:56:43;;;;;;;2.40;2.30;;;17.80;99.90;;;;;;4995013;28;20557;-64
2021/07/01 10:59:11;;;;;;;3.97;2.80;;;17.80;99.90;;;;;;4994821;28;20422;-64
2021/07/01 11:01:38;;;;;;;3.20;2.90;;;17.80;99.90;;;;;;4994814;28;20431;-63
2021/07/01 11:04:13;;;;;;;3.07;2.87;;;17.60;99.90;;;;;;4994706;28;20466;-63
2021/07/01 11:06:41;;;;;;;2.80;2.60;;;17.30;99.90;;;;;;4995015;28;20421;-64
2021/07/01 11:09:09;;;;;;;3.90;3.60;;;17.10;99.90;;;;;;4989979;28;20970;-63
2021/07/01 11:11:40;;;;;;;2.47;2.27;;;16.80;99.90;;;;;;4994175;28;20437;-63
2021/07/01 11:14:11;;;;;;;10.17;9.20;;;16.80;99.90;;;;;;4991568;28;20458;-63
2021/07/01 11:16:42;;;;;;;4.10;3.73;;;16.60;99.90;;;;;;4991668;28;20431;-63
2021/07/01 11:19:09;;;;;;;2.73;2.53;;;16.70;99.90;;;;;;4991498;28;20540;-63
2021/07/01 11:21:36;;;;;;;3.43;3.07;;;16.90;99.90;;;;;;4991483;28;20465;-64
2021/07/01 11:24:14;;;;;;;2.80;2.60;;;16.90;99.90;;;;;;4990047;28;20455;-64
2021/07/01 11:26:40;;;;;;;2.63;2.43;;;16.90;99.90;;;;;;4991469;28;20419;-63
2021/07/01 11:29:08;;;;;;;2.97;2.67;;;16.80;99.90;;;;;;4991009;28;20427;-63
2021/07/01 11:31:35;;;;;;;2.70;2.50;;;16.80;99.90;;;;;;4991106;28;20423;-64
2021/07/01 11:34:02;;;;;;;3.20;2.93;;;16.70;99.90;;;;;;4991183;28;20449;-64
2021/07/01 11:36:28;;;;;;;3.03;2.83;;;16.80;99.90;;;;;;4995994;28;20596;-63
2021/07/01 11:39:14;;;;;;;3.50;3.20;;;16.80;99.90;;;;;;5010331;28;20425;-63
2021/07/01 11:41:45;;;;;;;4.07;3.10;;;16.60;99.90;;;;;;5010590;28;20421;-63
2021/07/01 11:44:12;;;;;;;2.93;2.70;;;16.50;99.90;;;;;;4998134;28;20459;-63
2021/07/01 11:46:43;;;;;;;3.67;3.10;;;16.40;99.90;;;;;;4991034;28;20429;-63
2021/07/01 11:49:09;;;;;;;3.70;3.40;;;16.50;99.90;;;;;;4990572;28;20565;-63
2021/07/01 11:51:36;;;;;;;3.60;3.37;;;16.60;99.90;;;;;;4990613;28;20480;-64
2021/07/01 11:54:03;;;;;;;4.57;2.83;;;16.90;99.90;;;;;;4990738;28;20928;-62
2021/07/01 11:56:29;;;;;;;3.30;3.10;;;16.90;99.90;;;;;;4990874;28;20423;-63
2021/07/01 11:58:55;;;;;;;3.10;2.80;;;17.20;99.90;;;;;;4989748;28;20418;-63
2021/07/01 12:01:21;;;;;;;4.07;2.90;;;17.40;99.90;;;;;;4990479;28;20804;-63
2021/07/01 12:03:49;;;;;;;2.83;2.63;;;17.70;99.90;;;;;;4990275;28;20207;-63
2021/07/01 12:06:29;;;;;;;2.60;2.40;;;18.00;99.90;;;;;;4990477;28;20526;-63
2021/07/01 12:08:54;;;;;;;2.93;2.63;;;18.40;99.90;;;;;;4989489;28;20489;-63
2021/07/01 12:11:20;;;;;;;3.83;3.10;;;18.80;99.90;;;;;;4990309;28;20447;-63
2021/07/01 12:13:45;;;;;;;3.33;3.13;;;19.10;99.90;;;;;;4990328;28;20203;-63
2021/07/01 12:16:16;;;;;;;3.23;3.03;;;19.20;99.90;;;;;;4990169;28;20180;-62
2021/07/01 12:18:44;;;;;;;4.37;2.97;;;19.20;99.90;;;;;;4990429;28;20179;-63
2021/07/01 12:21:11;;;;;;;3.90;3.60;;;19.60;99.90;;;;;;4990250;28;20788;-63
2021/07/01 12:23:54;;;;;;;3.53;3.23;;;19.20;99.90;;;;;;4989862;28;20463;-64
2021/07/01 12:26:39;;;;;;;8.00;4.20;;;19.10;99.90;;;;;;4989955;28;20419;-63
2021/07/01 12:29:12;;;;;;;3.97;3.67;;;19.40;99.90;;;;;;4989772;28;20431;-63
2021/07/01 12:31:40;;;;;;;3.77;3.47;;;19.90;99.90;;;;;;4989709;28;20522;-63
2021/07/01 12:34:08;;;;;;;3.97;3.30;;;20.30;99.90;;;;;;4989997;28;20488;-63
2021/07/01 12:36:43;;;;;;;5.43;3.97;;;20.70;99.90;;;;;;4989808;28;20454;-63
2021/07/01 12:39:12;;;;;;;4.10;3.43;;;20.70;99.90;;;;;;4989679;28;20911;-63
2021/07/01 12:41:42;;;;;;;3.20;3.00;;;21.00;99.90;;;;;;4988317;28;20795;-62
2021/07/01 12:44:29;;;;;;;5.90;4.20;;;21.20;99.90;;;;;;4989615;28;20469;-63
2021/07/01 12:47:09;;;;;;;3.20;3.00;;;20.70;99.90;;;;;;4989813;28;20415;-63